sensor_id;sensor_type;location;lat;lon;timestamp;P1;durP1;ratioP1;P2;durP2;ratioP2
81310;SDS011;70779;52.506;5.492;2023-08-24T04:46:42;11.48;;;7.18;;
81310;SDS011;70779;52.506;5.492;2023-08-24T04:49:08;12.23;;;7.40;;
81310;SDS011;70779;52.506;5.492;2023-08-24T04:51:34;11.30;;;6.80;;
81310;SDS011;70779;52.506;5.492;2023-08-24T04:54:01;12.20;;;6.63;;
81310;SDS011;70779;52.506;5.492;2023-08-24T04:56:28;11.40;;;7.10;;
81310;SDS011;70779;52.506;5.492;2023-08-24T04:58:54;8.95;;;7.05;;
81310;SDS011;70779;52.506;5.492;2023-08-24T05:01:25;12.55;;;7.45;;
81310;SDS011;70779;52.506;5.492;2023-08-24T05:03:52;10.30;;;6.68;;
81310;SDS011;70779;52.506;5.492;2023-08-24T05:06:19;10.68;;;7.07;;
81310;SDS011;70779;52.506;5.492;2023-08-24T05:08:45;9.45;;;7.05;;
81310;SDS011;70779;52.506;5.492;2023-08-24T05:11:12;11.77;;;7.00;;
81310;SDS011;70779;52.506;5.492;2023-08-24T05:13:42;10.07;;;6.70;;
81310;SDS011;70779;52.506;5.492;2023-08-24T05:16:12;11.68;;;6.95;;
81310;SDS011;70779;52.506;5.492;2023-08-24T05:18:38;12.30;;;7.47;;
81310;SDS011;70779;52.506;5.492;2023-08-24T05:21:05;15.32;;;7.55;;
81310;SDS011;70779;52.506;5.492;2023-08-24T05:23:35;10.68;;;6.03;;
81310;SDS011;70779;52.506;5.492;2023-08-24T05:26:01;11.00;;;7.50;;
81310;SDS011;70779;52.506;5.492;2023-08-24T05:28:29;8.25;;;7.28;;
81310;SDS011;70779;52.506;5.492;2023-08-24T05:30:56;9.95;;;6.22;;
81310;SDS011;70779;52.506;5.492;2023-08-24T05:33:23;8.93;;;5.85;;
81310;SDS011;70779;52.506;5.492;2023-08-24T05:35:50;7.90;;;5.75;;
81310;SDS011;70779;52.506;5.492;2023-08-24T05:38:17;10.18;;;5.10;;
81310;SDS011;70779;52.506;5.492;2023-08-24T05:40:44;8.25;;;6.05;;
81310;SDS011;70779;52.506;5.492;2023-08-24T05:43:13;8.13;;;6.88;;
81310;SDS011;70779;52.506;5.492;2023-08-24T05:45:39;8.85;;;5.82;;
81310;SDS011;70779;52.506;5.492;2023-08-24T05:48:06;8.88;;;6.00;;
81310;SDS011;70779;52.506;5.492;2023-08-24T05:50:33;10.82;;;6.38;;
81310;SDS011;70779;52.506;5.492;2023-08-24T05:52:59;11.07;;;6.28;;
81310;SDS011;70779;52.506;5.492;2023-08-24T05:55:25;9.32;;;6.35;;
81310;SDS011;70779;52.506;5.492;2023-08-24T05:57:51;7.97;;;6.20;;
81310;SDS011;70779;52.506;5.492;2023-08-24T06:00:17;10.88;;;5.63;;
81310;SDS011;70779;52.506;5.492;2023-08-24T06:02:44;9.45;;;5.22;;
81310;SDS011;70779;52.506;5.492;2023-08-24T06:05:10;7.80;;;5.88;;
81310;SDS011;70779;52.506;5.492;2023-08-24T06:07:36;10.27;;;6.07;;
81310;SDS011;70779;52.506;5.492;2023-08-24T06:10:02;8.57;;;5.90;;
81310;SDS011;70779;52.506;5.492;2023-08-24T06:12:29;9.50;;;6.03;;
81310;SDS011;70779;52.506;5.492;2023-08-24T06:14:55;7.85;;;5.82;;
81310;SDS011;70779;52.506;5.492;2023-08-24T06:17:21;11.30;;;6.72;;
81310;SDS011;70779;52.506;5.492;2023-08-24T06:19:47;8.23;;;5.35;;
81310;SDS011;70779;52.506;5.492;2023-08-24T06:22:13;9.43;;;4.68;;
81310;SDS011;70779;52.506;5.492;2023-08-24T06:24:39;9.48;;;6.40;;
81310;SDS011;70779;52.506;5.492;2023-08-24T06:27:05;8.30;;;5.43;;
81310;SDS011;70779;52.506;5.492;2023-08-24T06:29:31;10.70;;;6.75;;
81310;SDS011;70779;52.506;5.492;2023-08-24T06:31:57;8.88;;;6.07;;
81310;SDS011;70779;52.506;5.492;2023-08-24T06:34:23;9.35;;;5.93;;
81310;SDS011;70779;52.506;5.492;2023-08-24T06:36:50;8.00;;;5.85;;
81310;SDS011;70779;52.506;5.492;2023-08-24T06:39:16;7.57;;;5.13;;
81310;SDS011;70779;52.506;5.492;2023-08-24T06:41:42;10.27;;;5.95;;
81310;SDS011;70779;52.506;5.492;2023-08-24T06:44:08;8.75;;;6.60;;
81310;SDS011;70779;52.506;5.492;2023-08-24T06:46:35;9.20;;;6.40;;
81310;SDS011;70779;52.506;5.492;2023-08-24T06:49:01;8.85;;;6.35;;
81310;SDS011;70779;52.506;5.492;2023-08-24T06:51:28;9.23;;;6.15;;
81310;SDS011;70779;52.506;5.492;2023-08-24T06:53:54;8.65;;;6.03;;
81310;SDS011;70779;52.506;5.492;2023-08-24T06:56:21;7.32;;;5.03;;
81310;SDS011;70779;52.506;5.492;2023-08-24T06:58:47;11.07;;;6.05;;
81310;SDS011;70779;52.506;5.492;2023-08-24T07:01:13;11.27;;;6.05;;
81310;SDS011;70779;52.506;5.492;2023-08-24T07:03:39;9.60;;;5.32;;
81310;SDS011;70779;52.506;5.492;2023-08-24T07:06:06;7.47;;;5.15;;
81310;SDS011;70779;52.506;5.492;2023-08-24T07:08:33;7.68;;;5.22;;
81310;SDS011;70779;52.506;5.492;2023-08-24T07:11:00;8.73;;;5.32;;
81310;SDS011;70779;52.506;5.492;2023-08-24T07:13:27;8.43;;;5.22;;
81310;SDS011;70779;52.506;5.492;2023-08-24T07:15:53;9.40;;;5.90;;
81310;SDS011;70779;52.506;5.492;2023-08-24T07:18:21;7.80;;;5.95;;
81310;SDS011;70779;52.506;5.492;2023-08-24T07:20:47;6.57;;;4.75;;
81310;SDS011;70779;52.506;5.492;2023-08-24T07:23:13;9.43;;;5.18;;
81310;SDS011;70779;52.506;5.492;2023-08-24T07:25:39;5.60;;;4.53;;
81310;SDS011;70779;52.506;5.492;2023-08-24T07:28:06;8.70;;;5.95;;
81310;SDS011;70779;52.506;5.492;2023-08-24T07:30:35;8.18;;;5.97;;
81310;SDS011;70779;52.506;5.492;2023-08-24T07:33:01;9.52;;;5.28;;
81310;SDS011;70779;52.506;5.492;2023-08-24T07:35:31;8.18;;;5.40;;
81310;SDS011;70779;52.506;5.492;2023-08-24T07:37:57;6.72;;;5.90;;
81310;SDS011;70779;52.506;5.492;2023-08-24T07:40:24;14.35;;;5.72;;
81310;SDS011;70779;52.506;5.492;2023-08-24T07:42:51;6.65;;;4.90;;
81310;SDS011;70779;52.506;5.492;2023-08-24T07:45:20;8.95;;;6.40;;
81310;SDS011;70779;52.506;5.492;2023-08-24T07:47:46;8.43;;;6.32;;
81310;SDS011;70779;52.506;5.492;2023-08-24T07:50:12;7.63;;;5.88;;
81310;SDS011;70779;52.506;5.492;2023-08-24T07:52:39;9.23;;;6.55;;
81310;SDS011;70779;52.506;5.492;2023-08-24T07:55:06;8.80;;;5.38;;
81310;SDS011;70779;52.506;5.492;2023-08-24T07:57:33;8.90;;;5.60;;
81310;SDS011;70779;52.506;5.492;2023-08-24T07:59:59;9.43;;;6.10;;
81310;SDS011;70779;52.506;5.492;2023-08-24T08:02:26;10.23;;;7.28;;
81310;SDS011;70779;52.506;5.492;2023-08-24T08:04:56;8.82;;;6.25;;
81310;SDS011;70779;52.506;5.492;2023-08-24T08:07:24;7.82;;;5.45;;
81310;SDS011;70779;52.506;5.492;2023-08-24T08:09:51;9.05;;;6.80;;
81310;SDS011;70779;52.506;5.492;2023-08-24T08:12:18;7.03;;;6.25;;
81310;SDS011;70779;52.506;5.492;2023-08-24T08:14:44;7.53;;;6.72;;
81310;SDS011;70779;52.506;5.492;2023-08-24T08:17:10;9.40;;;7.13;;
81310;SDS011;70779;52.506;5.492;2023-08-24T08:19:36;8.07;;;6.38;;
81310;SDS011;70779;52.506;5.492;2023-08-24T08:22:03;6.35;;;5.60;;
81310;SDS011;70779;52.506;5.492;2023-08-24T08:24:30;7.65;;;6.25;;
81310;SDS011;70779;52.506;5.492;2023-08-24T08:26:56;8.10;;;6.38;;
81310;SDS011;70779;52.506;5.492;2023-08-24T08:29:22;9.13;;;6.38;;
81310;SDS011;70779;52.506;5.492;2023-08-24T08:31:48;8.25;;;5.97;;
81310;SDS011;70779;52.506;5.492;2023-08-24T08:34:14;10.43;;;6.63;;
81310;SDS011;70779;52.506;5.492;2023-08-24T08:36:41;7.82;;;5.55;;
81310;SDS011;70779;52.506;5.492;2023-08-24T08:39:07;6.63;;;5.63;;
81310;SDS011;70779;52.506;5.492;2023-08-24T08:41:37;10.40;;;6.50;;
81310;SDS011;70779;52.506;5.492;2023-08-24T08:44:07;8.95;;;7.00;;
81310;SDS011;70779;52.506;5.492;2023-08-24T08:46:38;12.23;;;7.28;;
81310;SDS011;70779;52.506;5.492;2023-08-24T08:49:06;8.00;;;6.22;;
81310;SDS011;70779;52.506;5.492;2023-08-24T08:51:35;9.02;;;6.00;;
81310;SDS011;70779;52.506;5.492;2023-08-24T08:54:02;9.35;;;7.20;;
81310;SDS011;70779;52.506;5.492;2023-08-24T08:56:33;8.32;;;6.55;;
81310;SDS011;70779;52.506;5.492;2023-08-24T08:59:00;9.77;;;7.47;;
81310;SDS011;70779;52.506;5.492;2023-08-24T09:01:27;9.45;;;6.68;;
81310;SDS011;70779;52.506;5.492;2023-08-24T09:03:53;7.55;;;6.30;;
81310;SDS011;70779;52.506;5.492;2023-08-24T09:06:20;10.23;;;6.60;;
81310;SDS011;70779;52.506;5.492;2023-08-24T09:08:47;7.22;;;6.05;;
81310;SDS011;70779;52.506;5.492;2023-08-24T09:11:15;9.63;;;6.32;;
81310;SDS011;70779;52.506;5.492;2023-08-24T09:13:43;8.50;;;6.22;;
81310;SDS011;70779;52.506;5.492;2023-08-24T09:16:09;12.15;;;6.63;;
81310;SDS011;70779;52.506;5.492;2023-08-24T09:18:41;9.45;;;6.13;;
81310;SDS011;70779;52.506;5.492;2023-08-24T09:21:10;10.13;;;7.55;;
81310;SDS011;70779;52.506;5.492;2023-08-24T09:23:37;9.07;;;6.53;;
81310;SDS011;70779;52.506;5.492;2023-08-24T09:26:10;9.63;;;6.13;;
81310;SDS011;70779;52.506;5.492;2023-08-24T09:28:37;8.35;;;7.55;;
81310;SDS011;70779;52.506;5.492;2023-08-24T09:31:05;9.75;;;6.72;;
81310;SDS011;70779;52.506;5.492;2023-08-24T09:33:31;9.20;;;7.95;;
81310;SDS011;70779;52.506;5.492;2023-08-24T09:35:57;12.02;;;7.82;;
81310;SDS011;70779;52.506;5.492;2023-08-24T09:38:27;14.18;;;7.85;;
81310;SDS011;70779;52.506;5.492;2023-08-24T09:40:56;7.68;;;6.20;;
81310;SDS011;70779;52.506;5.492;2023-08-24T09:43:22;11.00;;;7.90;;
81310;SDS011;70779;52.506;5.492;2023-08-24T09:45:49;9.15;;;6.70;;
81310;SDS011;70779;52.506;5.492;2023-08-24T09:48:22;9.18;;;8.20;;
81310;SDS011;70779;52.506;5.492;2023-08-24T09:50:50;9.10;;;6.95;;
81310;SDS011;70779;52.506;5.492;2023-08-24T09:53:17;9.50;;;7.85;;
81310;SDS011;70779;52.506;5.492;2023-08-24T09:55:54;10.15;;;7.68;;
81310;SDS011;70779;52.506;5.492;2023-08-24T09:58:24;10.95;;;7.25;;
81310;SDS011;70779;52.506;5.492;2023-08-24T10:00:50;10.20;;;7.60;;
81310;SDS011;70779;52.506;5.492;2023-08-24T10:03:20;13.07;;;7.45;;
81310;SDS011;70779;52.506;5.492;2023-08-24T10:05:50;12.55;;;8.00;;
81310;SDS011;70779;52.506;5.492;2023-08-24T10:08:21;10.85;;;7.93;;
81310;SDS011;70779;52.506;5.492;2023-08-24T10:13:20;10.40;;;7.65;;
81310;SDS011;70779;52.506;5.492;2023-08-24T10:15:52;10.48;;;7.95;;
81310;SDS011;70779;52.506;5.492;2023-08-24T10:18:19;14.88;;;8.68;;
81310;SDS011;70779;52.506;5.492;2023-08-24T10:20:46;12.43;;;9.35;;
81310;SDS011;70779;52.506;5.492;2023-08-24T10:23:13;12.38;;;9.55;;
81310;SDS011;70779;52.506;5.492;2023-08-24T10:25:41;11.25;;;8.27;;
81310;SDS011;70779;52.506;5.492;2023-08-24T10:28:09;12.10;;;7.90;;
81310;SDS011;70779;52.506;5.492;2023-08-24T10:30:36;8.30;;;7.32;;
81310;SDS011;70779;52.506;5.492;2023-08-24T10:33:04;11.75;;;8.90;;
81310;SDS011;70779;52.506;5.492;2023-08-24T10:35:31;11.00;;;8.15;;
81310;SDS011;70779;52.506;5.492;2023-08-24T10:37:59;10.20;;;7.47;;
81310;SDS011;70779;52.506;5.492;2023-08-24T10:40:35;11.10;;;8.43;;
81310;SDS011;70779;52.506;5.492;2023-08-24T10:45:53;11.77;;;8.90;;
81310;SDS011;70779;52.506;5.492;2023-08-24T10:48:19;11.10;;;7.60;;
81310;SDS011;70779;52.506;5.492;2023-08-24T10:56:16;13.05;;;9.35;;
81310;SDS011;70779;52.506;5.492;2023-08-24T10:58:44;12.55;;;8.02;;
81310;SDS011;70779;52.506;5.492;2023-08-24T11:01:14;9.35;;;7.53;;
81310;SDS011;70779;52.506;5.492;2023-08-24T11:03:48;15.65;;;8.25;;
81310;SDS011;70779;52.506;5.492;2023-08-24T11:06:21;12.80;;;9.55;;
81310;SDS011;70779;52.506;5.492;2023-08-24T11:08:48;13.30;;;8.43;;
81310;SDS011;70779;52.506;5.492;2023-08-24T11:11:19;16.02;;;10.10;;
81310;SDS011;70779;52.506;5.492;2023-08-24T11:17:01;13.95;;;10.48;;
81310;SDS011;70779;52.506;5.492;2023-08-24T11:19:47;15.73;;;11.18;;
81310;SDS011;70779;52.506;5.492;2023-08-24T11:22:16;11.75;;;9.68;;
81310;SDS011;70779;52.506;5.492;2023-08-24T11:24:43;16.63;;;9.60;;
81310;SDS011;70779;52.506;5.492;2023-08-24T11:27:09;13.25;;;11.00;;
81310;SDS011;70779;52.506;5.492;2023-08-24T11:29:36;13.73;;;11.35;;
81310;SDS011;70779;52.506;5.492;2023-08-24T11:32:02;15.48;;;11.57;;
81310;SDS011;70779;52.506;5.492;2023-08-24T11:34:29;17.20;;;11.65;;
81310;SDS011;70779;52.506;5.492;2023-08-24T11:36:56;17.40;;;10.52;;
81310;SDS011;70779;52.506;5.492;2023-08-24T11:39:22;13.80;;;11.77;;
81310;SDS011;70779;52.506;5.492;2023-08-24T11:41:56;16.90;;;12.07;;
81310;SDS011;70779;52.506;5.492;2023-08-24T11:46:53;14.82;;;11.15;;
81310;SDS011;70779;52.506;5.492;2023-08-24T11:49:22;15.77;;;10.35;;
81310;SDS011;70779;52.506;5.492;2023-08-24T11:51:48;17.52;;;11.20;;
81310;SDS011;70779;52.506;5.492;2023-08-24T11:54:16;12.30;;;10.88;;
81310;SDS011;70779;52.506;5.492;2023-08-24T11:56:44;14.10;;;12.35;;
81310;SDS011;70779;52.506;5.492;2023-08-24T11:59:12;12.32;;;10.57;;
81310;SDS011;70779;52.506;5.492;2023-08-24T12:01:39;15.75;;;11.20;;
81310;SDS011;70779;52.506;5.492;2023-08-24T12:04:07;14.48;;;12.95;;
81310;SDS011;70779;52.506;5.492;2023-08-24T12:06:34;16.15;;;11.77;;
81310;SDS011;70779;52.506;5.492;2023-08-24T12:09:00;15.82;;;12.52;;
81310;SDS011;70779;52.506;5.492;2023-08-24T12:11:28;18.35;;;12.85;;
81310;SDS011;70779;52.506;5.492;2023-08-24T12:13:54;13.90;;;11.77;;
81310;SDS011;70779;52.506;5.492;2023-08-24T12:16:21;17.13;;;13.18;;
81310;SDS011;70779;52.506;5.492;2023-08-24T12:18:53;17.98;;;12.27;;
81310;SDS011;70779;52.506;5.492;2023-08-24T12:21:19;17.23;;;12.85;;
81310;SDS011;70779;52.506;5.492;2023-08-24T12:23:59;16.88;;;13.48;;
81310;SDS011;70779;52.506;5.492;2023-08-24T12:26:27;11.50;;;9.93;;
81310;SDS011;70779;52.506;5.492;2023-08-24T12:28:55;15.50;;;12.43;;
81310;SDS011;70779;52.506;5.492;2023-08-24T12:31:26;13.98;;;10.95;;
81310;SDS011;70779;52.506;5.492;2023-08-24T12:33:58;16.10;;;12.27;;
81310;SDS011;70779;52.506;5.492;2023-08-24T12:36:25;15.65;;;13.57;;
81310;SDS011;70779;52.506;5.492;2023-08-24T12:38:51;15.13;;;12.88;;
81310;SDS011;70779;52.506;5.492;2023-08-24T12:41:17;15.93;;;12.05;;
81310;SDS011;70779;52.506;5.492;2023-08-24T12:43:43;16.65;;;11.35;;
81310;SDS011;70779;52.506;5.492;2023-08-24T12:46:09;14.63;;;12.73;;
81310;SDS011;70779;52.506;5.492;2023-08-24T12:48:35;16.50;;;12.07;;
81310;SDS011;70779;52.506;5.492;2023-08-24T12:51:01;14.90;;;12.45;;
81310;SDS011;70779;52.506;5.492;2023-08-24T12:53:28;17.27;;;14.13;;
81310;SDS011;70779;52.506;5.492;2023-08-24T12:55:54;16.13;;;12.63;;
81310;SDS011;70779;52.506;5.492;2023-08-24T12:58:20;17.38;;;12.63;;
81310;SDS011;70779;52.506;5.492;2023-08-24T13:00:46;14.93;;;12.20;;
81310;SDS011;70779;52.506;5.492;2023-08-24T13:03:12;19.23;;;13.63;;
81310;SDS011;70779;52.506;5.492;2023-08-24T13:05:38;16.98;;;11.98;;
81310;SDS011;70779;52.506;5.492;2023-08-24T13:08:04;16.80;;;14.02;;
81310;SDS011;70779;52.506;5.492;2023-08-24T13:10:31;18.77;;;12.20;;
81310;SDS011;70779;52.506;5.492;2023-08-24T13:12:57;17.02;;;13.90;;
81310;SDS011;70779;52.506;5.492;2023-08-24T13:15:23;15.93;;;12.50;;
81310;SDS011;70779;52.506;5.492;2023-08-24T13:17:49;18.88;;;14.55;;
81310;SDS011;70779;52.506;5.492;2023-08-24T13:20:16;18.45;;;13.05;;
81310;SDS011;70779;52.506;5.492;2023-08-24T13:22:42;14.82;;;12.55;;
81310;SDS011;70779;52.506;5.492;2023-08-24T13:25:08;17.00;;;13.27;;
81310;SDS011;70779;52.506;5.492;2023-08-24T13:27:35;14.98;;;11.85;;
81310;SDS011;70779;52.506;5.492;2023-08-24T13:30:01;15.27;;;12.48;;
81310;SDS011;70779;52.506;5.492;2023-08-24T13:32:28;16.15;;;14.35;;
81310;SDS011;70779;52.506;5.492;2023-08-24T13:34:54;15.15;;;12.13;;
81310;SDS011;70779;52.506;5.492;2023-08-24T13:37:21;16.25;;;11.98;;
81310;SDS011;70779;52.506;5.492;2023-08-24T13:39:49;13.88;;;12.13;;
81310;SDS011;70779;52.506;5.492;2023-08-24T13:42:16;14.75;;;12.07;;
81310;SDS011;70779;52.506;5.492;2023-08-24T13:44:43;13.55;;;11.23;;
81310;SDS011;70779;52.506;5.492;2023-08-24T13:47:10;16.33;;;12.20;;
81310;SDS011;70779;52.506;5.492;2023-08-24T13:49:36;14.55;;;12.88;;
81310;SDS011;70779;52.506;5.492;2023-08-24T13:52:02;14.65;;;10.85;;
81310;SDS011;70779;52.506;5.492;2023-08-24T13:54:29;13.35;;;11.45;;
81310;SDS011;70779;52.506;5.492;2023-08-24T13:56:56;12.05;;;10.05;;
81310;SDS011;70779;52.506;5.492;2023-08-24T13:59:24;11.63;;;10.27;;
81310;SDS011;70779;52.506;5.492;2023-08-24T14:01:50;13.13;;;9.73;;
81310;SDS011;70779;52.506;5.492;2023-08-24T14:04:16;11.70;;;10.50;;
81310;SDS011;70779;52.506;5.492;2023-08-24T14:06:42;11.45;;;9.07;;
81310;SDS011;70779;52.506;5.492;2023-08-24T14:09:08;11.70;;;9.30;;
81310;SDS011;70779;52.506;5.492;2023-08-24T14:11:34;11.27;;;9.20;;
81310;SDS011;70779;52.506;5.492;2023-08-24T14:14:00;12.60;;;9.52;;
81310;SDS011;70779;52.506;5.492;2023-08-24T14:16:27;13.77;;;9.75;;
81310;SDS011;70779;52.506;5.492;2023-08-24T14:18:53;12.38;;;9.25;;
81310;SDS011;70779;52.506;5.492;2023-08-24T14:21:19;11.07;;;9.98;;
81310;SDS011;70779;52.506;5.492;2023-08-24T14:23:49;11.20;;;8.80;;
81310;SDS011;70779;52.506;5.492;2023-08-24T14:26:15;12.80;;;10.73;;
81310;SDS011;70779;52.506;5.492;2023-08-24T14:28:49;11.50;;;10.32;;
81310;SDS011;70779;52.506;5.492;2023-08-24T14:31:16;15.93;;;10.98;;
81310;SDS011;70779;52.506;5.492;2023-08-24T14:33:43;15.80;;;11.18;;
81310;SDS011;70779;52.506;5.492;2023-08-24T14:36:09;14.90;;;13.20;;
81310;SDS011;70779;52.506;5.492;2023-08-24T14:38:38;12.48;;;10.60;;
81310;SDS011;70779;52.506;5.492;2023-08-24T14:41:10;15.90;;;10.48;;
81310;SDS011;70779;52.506;5.492;2023-08-24T14:43:38;14.88;;;10.88;;
81310;SDS011;70779;52.506;5.492;2023-08-24T14:46:04;11.80;;;10.38;;
81310;SDS011;70779;52.506;5.492;2023-08-24T14:48:31;12.98;;;10.82;;
81310;SDS011;70779;52.506;5.492;2023-08-24T14:50:58;14.63;;;10.75;;
81310;SDS011;70779;52.506;5.492;2023-08-24T14:53:24;14.10;;;9.73;;
81310;SDS011;70779;52.506;5.492;2023-08-24T14:55:54;12.65;;;10.13;;
81310;SDS011;70779;52.506;5.492;2023-08-24T14:58:21;15.50;;;11.68;;
81310;SDS011;70779;52.506;5.492;2023-08-24T15:00:49;14.95;;;11.80;;
81310;SDS011;70779;52.506;5.492;2023-08-24T15:03:15;14.68;;;12.52;;
81310;SDS011;70779;52.506;5.492;2023-08-24T15:05:44;16.45;;;11.18;;
81310;SDS011;70779;52.506;5.492;2023-08-24T15:08:32;14.02;;;11.30;;
81310;SDS011;70779;52.506;5.492;2023-08-24T15:10:59;16.27;;;11.77;;
81310;SDS011;70779;52.506;5.492;2023-08-24T15:13:27;14.82;;;11.65;;
81310;SDS011;70779;52.506;5.492;2023-08-24T15:15:55;16.05;;;13.82;;
81310;SDS011;70779;52.506;5.492;2023-08-24T15:18:22;16.23;;;12.07;;
81310;SDS011;70779;52.506;5.492;2023-08-24T15:20:49;14.95;;;11.88;;
81310;SDS011;70779;52.506;5.492;2023-08-24T15:23:22;16.88;;;12.07;;
81310;SDS011;70779;52.506;5.492;2023-08-24T15:25:56;16.83;;;11.98;;
81310;SDS011;70779;52.506;5.492;2023-08-24T15:28:24;15.00;;;11.02;;
81310;SDS011;70779;52.506;5.492;2023-08-24T15:30:51;16.13;;;13.05;;
81310;SDS011;70779;52.506;5.492;2023-08-24T15:33:17;14.98;;;11.63;;
81310;SDS011;70779;52.506;5.492;2023-08-24T15:35:44;17.65;;;12.50;;
81310;SDS011;70779;52.506;5.492;2023-08-24T15:38:11;14.82;;;10.93;;
81310;SDS011;70779;52.506;5.492;2023-08-24T15:40:37;15.93;;;13.45;;
81310;SDS011;70779;52.506;5.492;2023-08-24T15:43:04;16.08;;;13.20;;
81310;SDS011;70779;52.506;5.492;2023-08-24T15:45:31;15.48;;;11.95;;
81310;SDS011;70779;52.506;5.492;2023-08-24T15:47:58;16.60;;;12.70;;
81310;SDS011;70779;52.506;5.492;2023-08-24T15:50:26;16.38;;;14.13;;
81310;SDS011;70779;52.506;5.492;2023-08-24T15:52:52;15.15;;;12.68;;
81310;SDS011;70779;52.506;5.492;2023-08-24T15:55:30;15.10;;;13.27;;
81310;SDS011;70779;52.506;5.492;2023-08-24T15:57:59;17.98;;;14.13;;
81310;SDS011;70779;52.506;5.492;2023-08-24T16:00:29;16.95;;;13.70;;
81310;SDS011;70779;52.506;5.492;2023-08-24T16:02:55;17.33;;;15.13;;
81310;SDS011;70779;52.506;5.492;2023-08-24T16:05:22;19.45;;;13.60;;
81310;SDS011;70779;52.506;5.492;2023-08-24T16:07:50;16.60;;;12.55;;
81310;SDS011;70779;52.506;5.492;2023-08-24T16:10:17;17.23;;;14.13;;
81310;SDS011;70779;52.506;5.492;2023-08-24T16:12:45;16.25;;;11.93;;
81310;SDS011;70779;52.506;5.492;2023-08-24T16:15:11;15.25;;;12.73;;
81310;SDS011;70779;52.506;5.492;2023-08-24T16:17:37;15.88;;;13.02;;
81310;SDS011;70779;52.506;5.492;2023-08-24T16:20:03;19.58;;;13.77;;
81310;SDS011;70779;52.506;5.492;2023-08-24T16:22:32;17.38;;;12.27;;
81310;SDS011;70779;52.506;5.492;2023-08-24T16:24:59;16.00;;;13.18;;
81310;SDS011;70779;52.506;5.492;2023-08-24T16:27:25;21.15;;;14.25;;
81310;SDS011;70779;52.506;5.492;2023-08-24T16:29:51;18.67;;;13.90;;
81310;SDS011;70779;52.506;5.492;2023-08-24T16:32:17;19.48;;;13.88;;
81310;SDS011;70779;52.506;5.492;2023-08-24T16:34:43;17.63;;;12.38;;
81310;SDS011;70779;52.506;5.492;2023-08-24T16:37:09;14.30;;;11.60;;
81310;SDS011;70779;52.506;5.492;2023-08-24T16:39:35;17.10;;;12.88;;
81310;SDS011;70779;52.506;5.492;2023-08-24T16:42:01;13.88;;;11.13;;
81310;SDS011;70779;52.506;5.492;2023-08-24T16:44:29;14.32;;;12.20;;
81310;SDS011;70779;52.506;5.492;2023-08-24T16:46:55;15.90;;;11.63;;
81310;SDS011;70779;52.506;5.492;2023-08-24T16:49:21;13.85;;;11.95;;
81310;SDS011;70779;52.506;5.492;2023-08-24T16:51:47;16.95;;;12.88;;
81310;SDS011;70779;52.506;5.492;2023-08-24T16:54:13;12.27;;;10.95;;
81310;SDS011;70779;52.506;5.492;2023-08-24T16:56:39;13.10;;;11.30;;
81310;SDS011;70779;52.506;5.492;2023-08-24T16:59:06;18.77;;;12.82;;
81310;SDS011;70779;52.506;5.492;2023-08-24T17:01:32;14.23;;;11.18;;
81310;SDS011;70779;52.506;5.492;2023-08-24T17:03:59;16.05;;;11.02;;
81310;SDS011;70779;52.506;5.492;2023-08-24T17:06:25;15.13;;;11.18;;
81310;SDS011;70779;52.506;5.492;2023-08-24T17:08:51;14.45;;;10.98;;
81310;SDS011;70779;52.506;5.492;2023-08-24T17:11:18;17.40;;;12.32;;
81310;SDS011;70779;52.506;5.492;2023-08-24T17:13:49;13.57;;;12.05;;
81310;SDS011;70779;52.506;5.492;2023-08-24T17:16:16;15.05;;;11.38;;
81310;SDS011;70779;52.506;5.492;2023-08-24T17:18:42;13.15;;;10.90;;
81310;SDS011;70779;52.506;5.492;2023-08-24T17:21:08;15.95;;;12.93;;
81310;SDS011;70779;52.506;5.492;2023-08-24T17:23:34;14.90;;;12.20;;
81310;SDS011;70779;52.506;5.492;2023-08-24T17:26:00;15.43;;;11.27;;
81310;SDS011;70779;52.506;5.492;2023-08-24T17:28:27;14.75;;;11.25;;
81310;SDS011;70779;52.506;5.492;2023-08-24T17:30:53;13.82;;;11.02;;
81310;SDS011;70779;52.506;5.492;2023-08-24T17:33:19;15.50;;;12.80;;
81310;SDS011;70779;52.506;5.492;2023-08-24T17:35:48;15.38;;;12.00;;
81310;SDS011;70779;52.506;5.492;2023-08-24T17:38:15;14.18;;;12.68;;
81310;SDS011;70779;52.506;5.492;2023-08-24T17:40:42;17.02;;;12.13;;
81310;SDS011;70779;52.506;5.492;2023-08-24T17:43:08;17.60;;;13.23;;
81310;SDS011;70779;52.506;5.492;2023-08-24T17:45:34;16.35;;;13.23;;
81310;SDS011;70779;52.506;5.492;2023-08-24T17:48:00;16.55;;;11.63;;
81310;SDS011;70779;52.506;5.492;2023-08-24T17:50:26;17.30;;;13.57;;
81310;SDS011;70779;52.506;5.492;2023-08-24T17:52:52;16.25;;;12.25;;
81310;SDS011;70779;52.506;5.492;2023-08-24T17:55:18;14.88;;;11.65;;
81310;SDS011;70779;52.506;5.492;2023-08-24T17:57:44;14.98;;;12.35;;
81310;SDS011;70779;52.506;5.492;2023-08-24T18:00:10;13.95;;;12.32;;
81310;SDS011;70779;52.506;5.492;2023-08-24T18:02:37;15.88;;;13.25;;
81310;SDS011;70779;52.506;5.492;2023-08-24T18:05:03;15.93;;;12.73;;
81310;SDS011;70779;52.506;5.492;2023-08-24T18:07:30;14.30;;;12.80;;
81310;SDS011;70779;52.506;5.492;2023-08-24T18:09:56;18.52;;;14.23;;
81310;SDS011;70779;52.506;5.492;2023-08-24T18:12:22;20.13;;;15.63;;
81310;SDS011;70779;52.506;5.492;2023-08-24T18:14:49;17.27;;;15.23;;
81310;SDS011;70779;52.506;5.492;2023-08-24T18:17:15;18.15;;;15.15;;
81310;SDS011;70779;52.506;5.492;2023-08-24T18:19:41;19.27;;;17.15;;
81310;SDS011;70779;52.506;5.492;2023-08-24T18:22:07;16.58;;;13.40;;
81310;SDS011;70779;52.506;5.492;2023-08-24T18:24:33;17.80;;;14.57;;
81310;SDS011;70779;52.506;5.492;2023-08-24T18:26:59;18.20;;;16.25;;
81310;SDS011;70779;52.506;5.492;2023-08-24T18:29:25;20.23;;;17.42;;
81310;SDS011;70779;52.506;5.492;2023-08-24T18:31:52;20.15;;;17.17;;
81310;SDS011;70779;52.506;5.492;2023-08-24T18:34:18;19.77;;;16.30;;
81310;SDS011;70779;52.506;5.492;2023-08-24T18:36:44;20.27;;;18.17;;
81310;SDS011;70779;52.506;5.492;2023-08-24T18:39:13;21.00;;;16.45;;
81310;SDS011;70779;52.506;5.492;2023-08-24T18:41:39;22.10;;;17.20;;
81310;SDS011;70779;52.506;5.492;2023-08-24T18:44:06;20.92;;;18.63;;
81310;SDS011;70779;52.506;5.492;2023-08-24T18:46:32;22.65;;;18.60;;
81310;SDS011;70779;52.506;5.492;2023-08-24T18:48:58;22.10;;;19.80;;
81310;SDS011;70779;52.506;5.492;2023-08-24T18:51:24;19.85;;;17.50;;
81310;SDS011;70779;52.506;5.492;2023-08-24T18:53:50;22.00;;;19.20;;
81310;SDS011;70779;52.506;5.492;2023-08-24T18:56:17;24.50;;;19.60;;
81310;SDS011;70779;52.506;5.492;2023-08-24T18:58:43;20.90;;;18.70;;
81310;SDS011;70779;52.506;5.492;2023-08-24T19:01:12;22.73;;;19.08;;
81310;SDS011;70779;52.506;5.492;2023-08-24T19:03:39;26.40;;;20.25;;
81310;SDS011;70779;52.506;5.492;2023-08-24T19:06:06;23.90;;;21.20;;
81310;SDS011;70779;52.506;5.492;2023-08-24T19:08:32;23.10;;;20.70;;
81310;SDS011;70779;52.506;5.492;2023-08-24T19:10:58;21.42;;;19.10;;
81310;SDS011;70779;52.506;5.492;2023-08-24T19:13:25;26.52;;;22.02;;
81310;SDS011;70779;52.506;5.492;2023-08-24T19:15:51;27.05;;;23.38;;
81310;SDS011;70779;52.506;5.492;2023-08-24T19:18:17;31.25;;;23.60;;
81310;SDS011;70779;52.506;5.492;2023-08-24T19:20:43;29.92;;;25.35;;
81310;SDS011;70779;52.506;5.492;2023-08-24T19:23:10;30.75;;;25.33;;
81310;SDS011;70779;52.506;5.492;2023-08-24T19:25:36;28.80;;;24.45;;
81310;SDS011;70779;52.506;5.492;2023-08-24T19:28:02;31.65;;;24.13;;
81310;SDS011;70779;52.506;5.492;2023-08-24T19:30:29;31.88;;;24.60;;
81310;SDS011;70779;52.506;5.492;2023-08-24T19:32:55;31.15;;;25.23;;